Flight Track Log - Related Links

Times and Time Zones

All times are in EDT time to prevent confusion due to time zone crossing. See the N516CB flight status page for this flight to view local times or setup timezone preferences in your user account.

Time Position Orientation Groundspeed Altitude Reporting Facility
EDT Latitude Longitude Course Direction KTS MPH feet Rate Location/Type
Wed 05:54:05 PM 40.3794 -109.6606 242° Southwest 170 196 10,800  Level Salt Lake Center
Wed 05:55:07 PM 40.3925 -109.7217 286° West 180 207 12,300 1,500 Climbing Salt Lake Center
Wed 05:56:09 PM 40.4064 -109.7942 284° West 182 209 13,900 1,403 Climbing Salt Lake Center
Wed 05:57:11 PM 40.4189 -109.8608 284° West 192 221 15,200 1,403 Climbing Salt Lake Center
Wed 05:58:13 PM 40.4353 -109.9383 286° West 196 226 16,800 1,355 Climbing Salt Lake Center
Wed 05:59:15 PM 40.4481 -110.0089 283° West 205 236 18,000 581 Climbing Salt Lake Center
Wed 06:00:17 PM 40.4653 -110.0953 285° West 221 254 18,000  Level Salt Lake Center
Wed 06:01:19 PM 40.4819 -110.1833 284° West 255 293 18,000  Level Salt Lake Center
Wed 06:02:21 PM 40.5031 -110.2869 285° West 263 303 18,000  Level Salt Lake Center
Wed 06:03:23 PM 40.5192 -110.3789 283° West 269 310 18,000  Level Salt Lake Center
Wed 06:04:25 PM 40.5400 -110.4856 284° West 270 311 18,000  Level Salt Lake Center
Wed 06:05:27 PM 40.5572 -110.5775 284° West 270 311 18,000  Level Salt Lake Center
Wed 06:06:29 PM 40.5778 -110.6814 285° West 273 314 18,000  Level Salt Lake Center
Wed 06:07:31 PM 40.5947 -110.7781 283° West 271 312 18,000  Level Salt Lake Center
Wed 06:08:32 PM 40.6142 -110.8736 285° West 271 312 18,000  Level Salt Lake Center
Wed 06:09:34 PM 40.6300 -110.9700 282° West 270 311 18,000  Level Salt Lake Center
Wed 06:10:36 PM 40.6489 -111.0664 285° West 272 313 18,000 -145 Level Salt Lake Center
Wed 06:11:38 PM 40.6700 -111.1814 284° West 270 311 17,700 -726 Descending Salt Lake Center
Wed 06:12:40 PM 40.6894 -111.2867 284° West 288 331 16,500 -1,210 Descending Salt Lake Center
Wed 06:13:42 PM 40.7083 -111.3919 283° West 294 338 15,200 -1,216 Descending Salt Lake Center
Wed 06:13:54 PM 40.7092 -111.4150 273° West 294 338 15,000 -1,224 Descending Salt Lake Center
Wed 06:14:31 PM 40.7200 -111.4792 283° West 291 335 14,200 -1,200 Descending Salt Lake Center
Wed 06:14:44 PM 40.7267 -111.4958 298° West 292 336 14,000 -1,400 Descending Salt Lake Center
Wed 06:15:31 PM 40.7361 -111.5811 278° West 284 327 12,800 -1,355 Descending Salt Lake Center
Wed 06:15:46 PM 40.7419 -111.5978 295° West 284 327 12,600 -885 Descending Salt Lake Center
Wed 06:16:32 PM 40.7331 -111.6844 262° West 265 305 11,900 -968 Descending Salt Lake Center
Wed 06:16:48 PM 40.7353 -111.6953 285° West 267 307 11,600 -2,557 Descending Salt Lake Center
Wed 06:17:33 PM 40.7178 -111.7803 255° West 262 302 9,300 -2,419 Descending Salt Lake Center
Wed 06:17:50 PM 40.7183 -111.7886 275° West 261 300 9,100 -400 Descending Salt Lake Center
Wed 06:18:33 PM 40.7169 -111.8628 269° West 213 245 8,900 -295 Descending Salt Lake Center
Wed 06:18:51 PM 40.7178 -111.8864 273° West 218 251 8,800 -2,550 Descending Salt Lake Center
Wed 06:19:53 PM 40.7431 -111.9453 300° West 187 215 5,500 -2,400 Descending Salt Lake Center
Wed 06:20:41 PM 40.7669 -111.9644 329° Northwest 114 131 4,400 -1,161 Descending Salt Lake Center
Wed 06:20:55 PM 40.7725 -111.9617 21° North 114 131 4,300 -429 Descending Salt Lake Center
Wed 06:22:00 PM 40.7833 -111.9667 270° West  Level FlightAware Approximate
Wed 06:29:00 PM 40.7884 -111.9778 270° West  Level Estimated

Login

Don't have an account? Register now (free) for customized features, flight alerts, and more!